Time;durP1;ratioP1;P1;durP2;ratioP2;P2;SDS_P1;SDS_P2;PMS_P1;PMS_P2;Temp;Humidity;BMP_temperature;BMP_pressure;BME280_temperature;BME280_humidity;BME280_pressure;Samples;Min_cycle;Max_cycle;Signal;HPM_P1;HPM_P2
2024/01/11 05:21:36;;;;;;;111.65;30.02;;;-5.70;99.90;;;;;;7600752;19;20374;-71
2024/01/11 05:24:09;;;;;;;202.32;37.40;;;-5.50;99.90;;;;;;7582475;19;20041;-73
2024/01/11 05:26:43;;;;;;;131.38;32.05;;;-5.60;99.90;;;;;;7607332;19;20030;-72
2024/01/11 05:29:15;;;;;;;183.90;36.10;;;-5.50;99.90;;;;;;7600416;19;20558;-73
2024/01/11 05:31:47;;;;;;;157.88;32.20;;;-5.40;99.90;;;;;;7612904;19;20014;-72
2024/01/11 05:34:20;;;;;;;;;;;-5.40;99.90;;;;;;7607590;19;20021;-73
2024/01/11 05:36:53;;;;;;;127.20;31.90;;;-5.40;99.90;;;;;;7572565;19;19930;-74
2024/01/11 05:39:26;;;;;;;139.07;32.15;;;-5.30;99.90;;;;;;7618461;19;23076;-74
2024/01/11 05:41:58;;;;;;;120.75;31.60;;;-5.20;99.90;;;;;;7603816;19;20395;-74
2024/01/11 05:44:31;;;;;;;126.53;31.05;;;-5.10;99.90;;;;;;7568727;19;20018;-73
2024/01/11 05:47:04;;;;;;;109.50;29.00;;;-5.10;99.90;;;;;;7578446;19;20055;-75
2024/01/11 05:49:36;;;;;;;157.55;30.27;;;-5.00;99.90;;;;;;7599031;19;20050;-75
2024/01/11 05:52:09;;;;;;;116.80;31.03;;;-5.00;99.90;;;;;;7576108;19;20912;-73
2024/01/11 05:54:41;;;;;;;170.50;26.90;;;-4.90;99.90;;;;;;7579581;19;20018;-75
2024/01/11 05:57:13;;;;;;;114.20;30.67;;;-4.90;99.90;;;;;;7590694;19;20052;-75
2024/01/11 05:59:46;;;;;;;154.48;33.60;;;-5.00;99.90;;;;;;7586925;19;20022;-74
2024/01/11 06:02:19;;;;;;;116.13;30.88;;;-5.10;99.90;;;;;;7572451;19;20025;-76
2024/01/11 06:04:53;;;;;;;211.63;35.72;;;-5.00;99.90;;;;;;7585933;19;20014;-76
2024/01/11 06:07:25;;;;;;;114.43;29.17;;;-5.00;99.90;;;;;;7560252;19;20025;-76
2024/01/11 06:09:57;;;;;;;163.20;35.30;;;-5.20;99.90;;;;;;7565426;19;20018;-77
2024/01/11 06:12:30;;;;;;;139.82;33.30;;;-5.20;99.90;;;;;;7556277;19;20660;-76
2024/01/11 06:15:03;;;;;;;114.78;30.15;;;-5.20;99.90;;;;;;7528279;19;20018;-75
2024/01/11 06:17:36;;;;;;;118.45;30.23;;;-5.10;99.90;;;;;;7555259;19;20025;-76
2024/01/11 06:20:10;;;;;;;136.30;29.70;;;-5.00;99.90;;;;;;7530065;19;20099;-77
2024/01/11 06:22:43;;;;;;;163.38;32.20;;;-4.90;99.90;;;;;;7556482;19;20847;-77
2024/01/11 06:25:18;;;;;;;123.55;29.52;;;-4.80;99.90;;;;;;7552460;19;20119;-76
2024/01/11 06:27:51;;;;;;;136.30;31.80;;;-4.80;99.90;;;;;;7546746;19;20014;-77
2024/01/11 06:30:23;;;;;;;126.82;29.85;;;-4.60;99.90;;;;;;7535260;19;20044;-77
2024/01/11 06:32:56;;;;;;;137.23;30.92;;;-4.60;99.90;;;;;;7534884;19;20022;-77
2024/01/11 06:35:28;;;;;;;119.20;29.90;;;-4.70;99.90;;;;;;7536102;19;20018;-77
2024/01/11 06:38:01;;;;;;;190.50;31.07;;;-4.70;99.90;;;;;;7531817;19;20559;-75
2024/01/11 06:40:33;;;;;;;124.47;28.87;;;-4.80;99.90;;;;;;7531473;19;20018;-76
2024/01/11 06:43:06;;;;;;;180.17;31.43;;;-4.70;99.90;;;;;;7561522;19;20110;-75
2024/01/11 06:45:39;;;;;;;108.00;30.85;;;-4.70;99.90;;;;;;7559593;19;20034;-76
2024/01/11 06:48:11;;;;;;;177.55;31.77;;;-4.70;99.90;;;;;;7556600;19;20010;-77
2024/01/11 06:50:44;;;;;;;105.50;27.50;;;-4.70;99.90;;;;;;7579708;19;20874;-77
2024/01/11 06:53:17;;;;;;;103.05;27.58;;;-4.70;99.90;;;;;;7584572;19;20033;-77
2024/01/11 06:55:52;;;;;;;97.82;27.92;;;-4.80;99.90;;;;;;7581308;19;20026;-77
2024/01/11 06:58:24;;;;;;;117.40;26.92;;;-4.80;99.90;;;;;;7536406;19;20018;-77
2024/01/11 07:00:57;;;;;;;124.37;27.63;;;-4.90;99.90;;;;;;7577092;19;20022;-76
2024/01/11 07:03:29;;;;;;;122.93;29.70;;;-5.00;99.90;;;;;;7557639;19;20780;-77
2024/01/11 07:06:02;;;;;;;98.30;27.13;;;-5.00;99.90;;;;;;7558920;19;21192;-77
2024/01/11 07:08:36;;;;;;;118.03;28.58;;;-4.90;99.90;;;;;;7580652;19;20331;-77
2024/01/11 07:11:09;;;;;;;102.57;25.52;;;-4.90;99.90;;;;;;7572683;19;20054;-76
2024/01/11 07:13:42;;;;;;;80.40;24.90;;;-4.70;99.90;;;;;;7582322;19;20101;-77
2024/01/11 07:16:15;;;;;;;105.45;27.45;;;-4.60;99.90;;;;;;7545707;19;20467;-77
2024/01/11 07:18:47;;;;;;;96.28;27.02;;;-4.70;99.90;;;;;;7576655;19;20025;-77
2024/01/11 07:21:31;;;;;;;96.30;25.90;;;-4.70;99.90;;;;;;7560984;19;20029;-77
2024/01/11 07:24:04;;;;;;;88.95;25.50;;;-4.80;99.90;;;;;;7592085;19;20015;-77
2024/01/11 07:26:37;;;;;;;86.18;23.17;;;-4.80;99.90;;;;;;7580625;19;22585;-77
2024/01/11 07:29:10;;;;;;;94.78;27.15;;;-4.70;99.90;;;;;;7587824;19;20025;-76
2024/01/11 07:31:42;;;;;;;85.53;26.13;;;-4.70;99.90;;;;;;7551331;19;20025;-76
2024/01/11 07:34:15;;;;;;;110.72;27.60;;;-4.70;99.90;;;;;;7555390;19;20018;-77
2024/01/11 07:36:47;;;;;;;136.43;28.05;;;-4.70;99.90;;;;;;7564274;19;20017;-76
2024/01/11 07:39:22;;;;;;;132.90;31.02;;;-4.70;99.90;;;;;;7564430;19;20006;-76
2024/01/11 07:41:55;;;;;;;88.80;26.70;;;-4.80;99.90;;;;;;7572686;19;20072;-77
2024/01/11 07:44:28;;;;;;;;;;;-4.80;99.90;;;;;;7557428;19;20015;-75
2024/01/11 07:47:00;;;;;;;134.30;27.95;;;-4.70;99.90;;;;;;7584585;19;19922;-76
2024/01/11 07:49:33;;;;;;;99.78;28.58;;;-4.80;99.90;;;;;;7583166;19;20052;-76
2024/01/11 07:52:05;;;;;;;107.80;30.23;;;-4.70;99.90;;;;;;7584683;19;20018;-77
2024/01/11 07:54:38;;;;;;;139.05;30.77;;;-4.70;99.90;;;;;;7575082;19;20011;-77
2024/01/11 07:57:10;;;;;;;99.22;30.60;;;-4.80;99.90;;;;;;7593770;19;20022;-77
2024/01/11 07:59:42;;;;;;;159.32;32.45;;;-4.70;99.90;;;;;;7569965;19;20976;-76
2024/01/11 08:02:16;;;;;;;137.80;28.83;;;-4.80;99.90;;;;;;7568293;19;20064;-77
2024/01/11 08:04:48;;;;;;;95.93;25.65;;;-4.80;99.90;;;;;;7569014;19;20050;-77
2024/01/11 08:07:21;;;;;;;120.03;26.65;;;-4.80;99.90;;;;;;7572109;19;20011;-77
2024/01/11 08:09:54;;;;;;;;;;;-4.90;99.90;;;;;;7569722;19;20881;-77
2024/01/11 14:21:42;;;;;;;129.17;45.70;;;-3.20;99.90;;;;;;7463255;19;3081040;-76
2024/01/11 14:24:14;;;;;;;151.07;49.38;;;-3.20;99.90;;;;;;7611964;19;20074;-76
2024/01/11 14:26:54;;;;;;;137.95;48.80;;;-3.20;99.90;;;;;;7608219;19;20017;-76
2024/01/11 14:29:26;;;;;;;152.85;49.05;;;-3.20;99.90;;;;;;7601291;19;20930;-75
2024/01/11 14:31:59;;;;;;;160.13;50.58;;;-3.10;99.90;;;;;;7615295;19;20018;-76
2024/01/11 14:34:31;;;;;;;139.93;46.80;;;-3.10;99.90;;;;;;7604469;19;20702;-76
2024/01/11 14:37:04;;;;;;;150.85;51.47;;;-3.10;99.90;;;;;;7614637;19;20105;-76
2024/01/11 14:39:37;;;;;;;156.57;49.53;;;-3.10;99.90;;;;;;7628381;19;20046;-75
2024/01/11 14:42:10;;;;;;;117.20;37.05;;;-3.20;99.90;;;;;;7612714;19;20014;-76
2024/01/11 14:44:42;;;;;;;136.43;44.85;;;-3.10;99.90;;;;;;7613783;19;20030;-77
2024/01/11 14:47:15;;;;;;;150.30;48.80;;;-3.00;99.90;;;;;;7622186;19;20357;-76
2024/01/11 14:49:48;;;;;;;164.52;51.58;;;-3.00;99.90;;;;;;7614825;19;20050;-75
2024/01/11 14:52:21;;;;;;;;;;;-2.90;99.90;;;;;;7621990;19;20626;-76
2024/01/11 14:54:53;;;;;;;156.80;49.70;;;-2.90;99.90;;;;;;7592399;19;20305;-75
2024/01/11 14:57:26;;;;;;;143.25;48.03;;;-2.80;99.90;;;;;;7604775;19;20015;-77
2024/01/11 14:59:58;;;;;;;150.93;49.15;;;-2.80;99.90;;;;;;7614581;19;20018;-76
2024/01/11 15:02:31;;;;;;;160.75;52.83;;;-2.70;99.90;;;;;;7606661;19;20254;-76
2024/01/11 15:05:04;;;;;;;158.30;53.88;;;-2.70;99.90;;;;;;7619980;19;20896;-76
2024/01/11 15:07:37;;;;;;;139.88;48.70;;;-2.80;99.90;;;;;;7614088;19;20028;-77
2024/01/11 15:10:10;;;;;;;157.93;51.08;;;-2.70;99.90;;;;;;7617450;19;20024;-76
2024/01/11 15:12:42;;;;;;;135.80;49.53;;;-2.70;99.90;;;;;;7624143;19;20018;-76
2024/01/11 15:15:15;;;;;;;151.35;48.40;;;-2.70;99.90;;;;;;7619703;19;20014;-77
2024/01/11 15:17:47;;;;;;;155.18;54.05;;;-2.70;99.90;;;;;;7624718;19;20264;-77
2024/01/11 15:20:22;;;;;;;156.73;51.95;;;-2.70;99.90;;;;;;7627761;19;20026;-76
2024/01/11 15:22:54;;;;;;;159.57;51.40;;;-2.90;99.90;;;;;;7624000;19;20892;-76
2024/01/11 15:25:27;;;;;;;159.63;52.33;;;-2.90;99.90;;;;;;7624416;19;20812;-76
2024/01/11 15:27:59;;;;;;;152.43;55.03;;;-3.00;99.90;;;;;;7626221;19;20025;-76
2024/01/11 15:30:31;;;;;;;165.98;53.28;;;-2.90;99.90;;;;;;7621141;19;20045;-77
2024/01/11 15:33:04;;;;;;;167.40;54.15;;;-2.90;99.90;;;;;;7599995;19;20067;-76
2024/01/11 15:35:37;;;;;;;191.80;69.13;;;-2.90;99.90;;;;;;7577454;19;20051;-76
2024/01/11 15:38:11;;;;;;;172.65;54.28;;;-2.80;99.90;;;;;;7589916;19;20018;-76
2024/01/11 15:40:44;;;;;;;;;;;-2.80;99.90;;;;;;7565721;19;20019;-76
2024/01/11 15:43:16;;;;;;;213.18;69.90;;;-2.80;99.90;;;;;;7584583;19;19914;-76
2024/01/11 15:45:49;;;;;;;180.70;58.38;;;-2.80;99.90;;;;;;7582099;19;20014;-76
2024/01/11 15:48:21;;;;;;;;;;;-2.80;99.90;;;;;;7591855;19;20422;-76
2024/01/11 15:50:57;;;;;;;163.13;52.25;;;-2.80;99.90;;;;;;7592246;19;20011;-77
2024/01/11 15:53:29;;;;;;;178.93;56.33;;;-2.80;99.90;;;;;;7583919;19;20018;-77
2024/01/11 15:56:02;;;;;;;161.30;55.80;;;-2.90;99.90;;;;;;7577192;19;20481;-76
2024/01/11 15:58:34;;;;;;;168.10;54.15;;;-2.80;99.90;;;;;;7589566;19;20015;-75
2024/01/11 16:01:06;;;;;;;166.48;55.35;;;-2.90;99.90;;;;;;7601584;19;20022;-76
2024/01/11 16:03:39;;;;;;;147.93;46.30;;;-3.00;99.90;;;;;;7591686;19;20860;-76
2024/01/11 16:06:11;;;;;;;197.75;58.83;;;-3.00;99.90;;;;;;7585329;19;20026;-76
2024/01/11 16:08:44;;;;;;;167.23;51.93;;;-3.10;99.90;;;;;;7581872;19;20014;-76
2024/01/11 16:11:16;;;;;;;205.38;59.95;;;-3.20;99.90;;;;;;7583797;19;20034;-76
2024/01/11 16:13:49;;;;;;;177.20;55.08;;;-3.20;99.90;;;;;;7584522;19;21863;-77
2024/01/11 16:16:21;;;;;;;172.73;52.90;;;-3.30;99.90;;;;;;7589154;19;20976;-77
2024/01/11 16:18:54;;;;;;;161.52;55.25;;;-3.30;99.90;;;;;;7581634;19;20602;-75
2024/01/11 16:21:31;;;;;;;182.32;58.55;;;-3.20;99.90;;;;;;7580640;19;20014;-77
2024/01/11 16:24:04;;;;;;;200.95;62.55;;;-3.20;99.90;;;;;;7591819;19;20025;-77
2024/01/11 16:26:36;;;;;;;196.60;62.90;;;-3.20;99.90;;;;;;7586016;19;21652;-76
2024/01/11 16:29:08;;;;;;;201.80;61.95;;;-3.30;99.90;;;;;;7585761;19;20014;-77
2024/01/11 16:31:41;;;;;;;185.50;59.67;;;-3.40;99.90;;;;;;7579233;19;20023;-77
2024/01/11 16:34:14;;;;;;;185.90;58.88;;;-3.40;99.90;;;;;;7577677;19;20017;-76
2024/01/11 16:36:46;;;;;;;205.17;61.33;;;-3.30;99.90;;;;;;7590172;19;20022;-77
2024/01/11 16:39:18;;;;;;;184.30;57.75;;;-3.40;99.90;;;;;;7583485;19;20021;-77
2024/01/11 16:41:51;;;;;;;194.93;62.83;;;-3.40;99.90;;;;;;7592682;19;20213;-77
2024/01/11 16:44:24;;;;;;;199.38;61.58;;;-3.40;99.90;;;;;;7586727;19;20015;-76
2024/01/11 16:46:57;;;;;;;202.10;63.25;;;-3.40;99.90;;;;;;7592415;19;20019;-77
2024/01/11 16:49:29;;;;;;;202.90;60.95;;;-3.40;99.90;;;;;;7574984;19;20014;-78
2024/01/11 16:52:04;;;;;;;183.73;57.35;;;-3.30;99.90;;;;;;7589416;19;20121;-78
2024/01/11 16:54:38;;;;;;;175.25;55.40;;;-3.20;99.90;;;;;;7562488;19;20029;-76
2024/01/11 16:57:10;;;;;;;188.15;59.95;;;-3.10;99.90;;;;;;7591662;19;20015;-77
2024/01/11 16:59:42;;;;;;;190.80;60.33;;;-3.10;99.90;;;;;;7580023;19;20021;-75
2024/01/11 17:02:14;;;;;;;184.77;58.92;;;-3.20;99.90;;;;;;7559888;19;20053;-76
2024/01/11 17:04:47;;;;;;;189.03;58.77;;;-3.40;99.90;;;;;;7564284;19;20936;-78
2024/01/11 17:07:20;;;;;;;196.85;60.92;;;-3.20;99.90;;;;;;7585997;19;20361;-75
2024/01/11 17:09:53;;;;;;;152.65;48.67;;;-3.20;99.90;;;;;;7587604;19;20010;-75
2024/01/11 17:12:25;;;;;;;198.30;60.13;;;-3.20;99.90;;;;;;7576649;19;20050;-75
2024/01/11 17:14:57;;;;;;;171.25;57.03;;;-3.20;99.90;;;;;;7584587;19;20037;-78
2024/01/11 17:17:31;;;;;;;176.23;55.33;;;-3.20;99.90;;;;;;7585551;19;20007;-74
2024/01/11 17:20:04;;;;;;;173.17;56.83;;;-3.10;99.90;;;;;;7592625;19;20022;-77
2024/01/11 17:22:36;;;;;;;180.77;54.70;;;-3.10;99.90;;;;;;7574015;19;20082;-79
2024/01/11 17:25:09;;;;;;;184.63;56.47;;;-3.20;99.90;;;;;;7583415;19;20011;-79
2024/01/11 17:27:41;;;;;;;187.63;58.60;;;-3.20;99.90;;;;;;7572369;19;20014;-76
2024/01/11 17:30:14;;;;;;;175.80;56.63;;;-3.20;99.90;;;;;;7580240;19;20113;-76
2024/01/11 17:32:47;;;;;;;174.80;56.05;;;-3.20;99.90;;;;;;7585824;19;20022;-76
2024/01/11 17:35:20;;;;;;;208.80;67.45;;;-3.10;99.90;;;;;;7594383;19;20015;-76
2024/01/11 17:37:52;;;;;;;176.43;56.15;;;-3.10;99.90;;;;;;7588485;19;20014;-77
2024/01/11 17:40:24;;;;;;;180.77;59.13;;;-3.10;99.90;;;;;;7593879;19;20264;-77
2024/01/11 17:42:57;;;;;;;165.77;56.72;;;-3.00;99.90;;;;;;7596684;19;20568;-77
2024/01/11 17:45:29;;;;;;;207.02;60.80;;;-3.00;99.90;;;;;;7586014;19;20018;-76
2024/01/11 17:48:01;;;;;;;178.73;57.78;;;-3.00;99.90;;;;;;7598556;19;20614;-77
2024/01/11 17:50:34;;;;;;;184.23;55.95;;;-3.00;99.90;;;;;;7597399;19;20021;-77
2024/01/11 17:53:07;;;;;;;162.38;55.17;;;-3.00;99.90;;;;;;7596073;19;20932;-77
2024/01/11 17:55:39;;;;;;;186.30;57.15;;;-3.00;99.90;;;;;;7579734;19;20480;-77
2024/01/11 17:58:12;;;;;;;170.13;55.88;;;-3.00;99.90;;;;;;7589390;19;20015;-74
2024/01/11 18:00:44;;;;;;;187.27;58.87;;;-3.00;99.90;;;;;;7584189;19;20014;-75
2024/01/11 18:03:16;;;;;;;168.38;52.95;;;-3.00;99.90;;;;;;7587142;19;20019;-74
2024/01/11 18:05:49;;;;;;;171.77;55.33;;;-3.00;99.90;;;;;;7571835;19;20018;-75
2024/01/11 18:08:21;;;;;;;167.27;53.17;;;-3.00;99.90;;;;;;7568226;19;20674;-75
2024/01/11 18:10:54;;;;;;;178.35;55.20;;;-3.00;99.90;;;;;;7582785;19;20934;-74
2024/01/11 18:13:26;;;;;;;168.25;53.42;;;-3.00;99.90;;;;;;7584078;19;20509;-74
2024/01/11 18:15:58;;;;;;;172.63;53.70;;;-3.10;99.90;;;;;;7589926;19;20045;-76
2024/01/11 18:18:33;;;;;;;178.60;53.27;;;-3.00;99.90;;;;;;7594823;19;20014;-75
2024/01/11 18:21:05;;;;;;;202.02;66.55;;;-2.90;99.90;;;;;;7592372;19;20467;-76
2024/01/11 18:23:38;;;;;;;174.23;53.72;;;-3.00;99.90;;;;;;7590259;19;20022;-75
2024/01/11 18:26:11;;;;;;;175.82;58.75;;;-3.00;99.90;;;;;;7596072;19;20010;-74
2024/01/11 18:28:44;;;;;;;226.20;78.55;;;-3.00;99.90;;;;;;7598757;19;20356;-75
2024/01/11 18:31:16;;;;;;;179.32;57.72;;;-3.00;99.90;;;;;;7591087;19;20384;-74
2024/01/11 18:33:51;;;;;;;193.00;59.78;;;-2.90;99.90;;;;;;7561205;19;20010;-73
2024/01/11 18:36:25;;;;;;;170.27;50.20;;;-3.00;99.90;;;;;;7574780;19;20023;-73
2024/01/11 18:38:58;;;;;;;178.98;55.50;;;-3.00;99.90;;;;;;7580829;19;20069;-75
2024/01/11 18:41:31;;;;;;;171.38;54.25;;;-3.00;99.90;;;;;;7591035;19;20015;-75
2024/01/11 18:44:03;;;;;;;178.30;53.17;;;-3.00;99.90;;;;;;7593419;19;20014;-74
2024/01/11 18:46:40;;;;;;;149.23;48.65;;;-3.10;99.90;;;;;;7581243;19;20590;-74
2024/01/11 18:49:12;;;;;;;158.10;49.88;;;-3.10;99.90;;;;;;7588884;19;20014;-76
2024/01/11 18:51:46;;;;;;;158.32;50.13;;;-3.00;99.90;;;;;;7560379;19;20019;-73
2024/01/11 18:54:18;;;;;;;172.60;48.83;;;-3.00;99.90;;;;;;7595063;19;20046;-74
2024/01/11 18:56:50;;;;;;;131.32;46.78;;;-3.00;99.90;;;;;;7590481;19;20030;-74
2024/01/11 18:59:24;;;;;;;158.77;49.03;;;-3.00;99.90;;;;;;7598975;19;22890;-74
2024/01/11 19:01:56;;;;;;;163.35;49.38;;;-3.00;99.90;;;;;;7580619;19;20043;-72
2024/01/11 19:04:29;;;;;;;111.68;33.58;;;-3.00;99.90;;;;;;7582843;19;20379;-73
2024/01/11 19:07:01;;;;;;;158.60;50.73;;;-3.00;99.90;;;;;;7580177;19;20022;-75
2024/01/11 19:09:34;;;;;;;157.60;47.28;;;-3.10;99.90;;;;;;7599431;19;20015;-74
2024/01/11 19:12:07;;;;;;;154.43;45.00;;;-3.10;99.90;;;;;;7588163;19;20615;-73
2024/01/11 19:14:40;;;;;;;169.73;49.50;;;-3.10;99.90;;;;;;7600663;19;20065;-76
2024/01/11 19:17:12;;;;;;;181.30;51.95;;;-3.10;99.90;;;;;;7605241;19;20479;-74
2024/01/11 19:19:45;;;;;;;155.33;49.20;;;-3.20;99.90;;;;;;7594157;19;20018;-74
2024/01/11 19:22:17;;;;;;;161.68;48.45;;;-3.10;99.90;;;;;;7595902;19;20327;-74
2024/01/11 19:24:50;;;;;;;168.02;48.13;;;-3.00;99.90;;;;;;7586813;19;20497;-73
2024/01/11 19:27:22;;;;;;;142.15;44.40;;;-3.00;99.90;;;;;;7597076;19;20015;-73
2024/01/11 19:29:56;;;;;;;164.02;48.20;;;-3.00;99.90;;;;;;7596444;19;20018;-73
2024/01/11 19:32:28;;;;;;;188.38;52.20;;;-3.00;99.90;;;;;;7601898;19;20033;-76
2024/01/11 19:35:01;;;;;;;174.05;49.92;;;-3.00;99.90;;;;;;7594474;19;20014;-76
2024/01/11 19:37:33;;;;;;;164.05;50.10;;;-3.00;99.90;;;;;;7606590;19;20109;-75
2024/01/11 19:40:06;;;;;;;149.70;44.75;;;-3.00;99.90;;;;;;7603732;19;20040;-76
2024/01/11 19:42:40;;;;;;;172.60;51.53;;;-3.00;99.90;;;;;;7601464;19;20026;-77
2024/01/11 19:45:14;;;;;;;173.40;50.40;;;-2.90;99.90;;;;;;7588304;19;20028;-75
2024/01/11 19:47:47;;;;;;;188.90;54.83;;;-2.90;99.90;;;;;;7599407;19;20039;-74
2024/01/11 19:50:19;;;;;;;187.80;52.90;;;-2.90;99.90;;;;;;7600907;19;20488;-73
2024/01/11 19:52:52;;;;;;;181.45;50.67;;;-3.10;99.90;;;;;;7600343;19;20017;-75
2024/01/11 19:55:25;;;;;;;200.45;63.30;;;-3.10;99.90;;;;;;7592054;19;20025;-75
2024/01/11 19:57:57;;;;;;;173.60;52.30;;;-3.10;99.90;;;;;;7599411;19;21047;-75
2024/01/11 20:00:29;;;;;;;197.43;59.15;;;-3.20;99.90;;;;;;7599109;19;20021;-74
2024/01/11 20:03:02;;;;;;;174.23;54.03;;;-3.20;99.90;;;;;;7562412;19;20011;-73
2024/01/11 20:05:35;;;;;;;136.07;39.53;;;-3.10;99.90;;;;;;7588353;19;20114;-72
2024/01/11 20:08:07;;;;;;;152.07;47.97;;;-3.00;99.90;;;;;;7604865;19;20003;-73
2024/01/11 20:10:40;;;;;;;153.32;42.35;;;-3.00;99.90;;;;;;7596705;19;20018;-74
2024/01/11 20:13:12;;;;;;;141.40;39.42;;;-3.00;99.90;;;;;;7598340;19;20550;-76
2024/01/11 20:15:44;;;;;;;132.90;41.33;;;-3.10;99.90;;;;;;7591478;19;20039;-73
2024/01/11 20:18:17;;;;;;;126.15;37.15;;;-3.20;99.90;;;;;;7593625;19;20066;-74
2024/01/11 20:20:51;;;;;;;87.03;26.17;;;-3.30;99.90;;;;;;7590308;19;20018;-74
2024/01/11 20:23:24;;;;;;;111.93;35.17;;;-3.30;99.90;;;;;;7600889;19;20113;-74
2024/01/11 20:26:00;;;;;;;113.87;35.73;;;-3.30;99.90;;;;;;7600374;19;20013;-76
2024/01/11 20:28:32;;;;;;;121.50;35.95;;;-3.40;99.90;;;;;;7597663;19;20010;-75
2024/01/11 20:31:05;;;;;;;138.63;38.78;;;-3.40;99.90;;;;;;7598283;19;20046;-75
2024/01/11 20:33:37;;;;;;;113.05;35.80;;;-3.40;99.90;;;;;;7593541;19;20687;-75
2024/01/11 20:36:10;;;;;;;96.13;32.30;;;-3.50;99.90;;;;;;7603602;19;20558;-75
2024/01/11 20:38:42;;;;;;;113.18;34.97;;;-3.50;99.90;;;;;;7600627;19;20581;-75
2024/01/11 20:41:15;;;;;;;112.70;32.97;;;-3.60;99.90;;;;;;7602750;19;20025;-76
2024/01/11 20:43:49;;;;;;;110.80;32.40;;;-3.60;99.90;;;;;;7593823;19;20303;-75
2024/01/11 20:46:25;;;;;;;100.25;29.52;;;-3.60;99.90;;;;;;7599421;19;20081;-75
2024/01/11 20:48:58;;;;;;;115.53;34.65;;;-3.70;99.90;;;;;;7596554;19;20064;-75
2024/01/11 20:51:30;;;;;;;97.63;32.43;;;-3.80;99.90;;;;;;7600622;19;20491;-75
2024/01/11 20:54:03;;;;;;;107.70;30.93;;;-3.80;99.90;;;;;;7596675;19;20760;-75
2024/01/11 20:56:43;;;;;;;95.23;27.90;;;-3.80;99.90;;;;;;7602180;19;20015;-75
2024/01/11 20:59:16;;;;;;;92.20;28.55;;;-4.00;99.90;;;;;;7599255;19;20098;-74
2024/01/11 21:01:48;;;;;;;95.85;28.77;;;-4.10;99.90;;;;;;7599524;19;20014;-76
2024/01/11 21:04:20;;;;;;;120.10;29.13;;;-4.10;99.90;;;;;;7604348;19;20113;-76
2024/01/11 21:06:54;;;;;;;106.57;30.20;;;-4.20;99.90;;;;;;7601480;19;20104;-76
2024/01/11 21:09:26;;;;;;;102.53;28.60;;;-4.30;99.90;;;;;;7603781;19;20694;-76
2024/01/11 21:11:59;;;;;;;89.07;22.48;;;-4.50;99.90;;;;;;7596069;19;20011;-76
2024/01/11 21:14:33;;;;;;;96.72;27.50;;;-4.50;99.90;;;;;;7592140;19;21065;-77
2024/01/11 21:17:05;;;;;;;65.05;22.60;;;-4.60;99.90;;;;;;7573891;19;21090;-76
2024/01/11 21:19:37;;;;;;;71.22;21.42;;;-4.60;99.90;;;;;;7597340;19;20014;-76
2024/01/11 21:22:10;;;;;;;75.15;23.92;;;-4.60;99.90;;;;;;7581184;19;20022;-76
2024/01/11 21:24:43;;;;;;;60.10;21.20;;;-4.70;99.90;;;;;;7595586;19;20072;-73
2024/01/11 21:27:15;;;;;;;75.57;23.03;;;-4.80;99.90;;;;;;7579997;19;20102;-75
2024/01/11 21:29:47;;;;;;;72.05;22.70;;;-4.90;99.90;;;;;;7586201;19;20030;-75
2024/01/11 21:32:21;;;;;;;66.38;24.00;;;-5.00;99.90;;;;;;7590613;19;20021;-76
2024/01/11 21:34:53;;;;;;;74.38;24.70;;;-5.00;99.90;;;;;;7595967;19;20018;-75
2024/01/11 21:37:25;;;;;;;82.70;26.13;;;-4.90;99.90;;;;;;7600563;19;20047;-76
2024/01/11 21:39:58;;;;;;;80.47;26.83;;;-4.80;99.90;;;;;;7602010;19;20018;-76
2024/01/11 21:42:32;;;;;;;76.90;24.90;;;-4.80;99.90;;;;;;7590747;19;21197;-75
2024/01/11 21:45:05;;;;;;;89.78;26.48;;;-4.80;99.90;;;;;;7579196;19;20018;-75
2024/01/11 21:47:37;;;;;;;85.00;25.40;;;-4.90;99.90;;;;;;7602729;19;20018;-76
2024/01/11 21:50:10;;;;;;;79.30;26.00;;;-4.90;99.90;;;;;;7552726;19;20779;-74
2024/01/11 21:52:43;;;;;;;85.82;28.58;;;-4.90;99.90;;;;;;7578426;19;20015;-75
2024/01/11 21:55:15;;;;;;;75.88;25.90;;;-4.90;99.90;;;;;;7585372;19;20018;-75
2024/01/11 21:57:47;;;;;;;83.68;25.30;;;-4.80;99.90;;;;;;7577702;19;20453;-75
2024/01/11 22:00:20;;;;;;;92.28;22.42;;;-4.80;99.90;;;;;;7572297;19;20101;-75
2024/01/11 22:02:53;;;;;;;57.83;18.55;;;-4.80;99.90;;;;;;7581842;19;20021;-74
2024/01/11 22:05:25;;;;;;;106.63;29.57;;;-4.90;99.90;;;;;;7553111;19;20823;-74
2024/01/11 22:07:58;;;;;;;94.22;28.70;;;-5.00;99.90;;;;;;7544518;19;20785;-75
2024/01/11 22:10:31;;;;;;;106.93;29.08;;;-4.90;99.90;;;;;;7553136;19;21126;-74
2024/01/11 22:13:04;;;;;;;115.35;31.45;;;-4.80;99.90;;;;;;7558124;19;20011;-73
2024/01/11 22:15:36;;;;;;;100.50;31.17;;;-4.80;99.90;;;;;;7541932;19;21342;-74
2024/01/11 22:18:08;;;;;;;108.13;31.67;;;-4.70;99.90;;;;;;7571085;19;22313;-74
2024/01/11 22:20:41;;;;;;;105.90;30.20;;;-4.70;99.90;;;;;;7593633;19;20267;-74
2024/01/11 22:23:14;;;;;;;117.72;31.25;;;-4.70;99.90;;;;;;7586781;19;20049;-73
2024/01/11 22:25:46;;;;;;;127.93;33.22;;;-4.70;99.90;;;;;;7588935;19;20018;-72
2024/01/11 22:28:18;;;;;;;127.57;31.95;;;-4.60;99.90;;;;;;7573904;19;20307;-72
2024/01/11 22:30:51;;;;;;;133.02;35.08;;;-4.60;99.90;;;;;;7564605;19;20793;-73
2024/01/11 22:33:23;;;;;;;116.10;31.37;;;-4.60;99.90;;;;;;7594301;19;20017;-73
2024/01/11 22:35:56;;;;;;;114.93;32.60;;;-4.60;99.90;;;;;;7584578;19;20018;-73
2024/01/11 22:38:29;;;;;;;118.10;33.07;;;-4.60;99.90;;;;;;7589757;19;20157;-75
2024/01/11 22:41:04;;;;;;;98.40;29.30;;;-4.60;99.90;;;;;;7071880;19;10000222;-72
2024/01/11 22:43:37;;;;;;;97.40;30.50;;;-4.50;99.90;;;;;;7592102;19;20549;-72
2024/01/11 22:46:10;;;;;;;99.25;30.42;;;-4.60;99.90;;;;;;7582707;19;21342;-73
2024/01/11 22:48:43;;;;;;;117.50;32.10;;;-4.60;99.90;;;;;;7591402;19;20881;-73
2024/01/11 22:51:16;;;;;;;104.80;29.73;;;-4.60;99.90;;;;;;7573006;19;20484;-72
2024/01/11 22:53:50;;;;;;;103.18;28.55;;;-4.60;99.90;;;;;;7589473;19;20879;-73
2024/01/11 22:56:23;;;;;;;111.45;31.52;;;-4.50;99.90;;;;;;7599524;19;20029;-73
2024/01/11 22:58:56;;;;;;;104.72;33.03;;;-4.60;99.90;;;;;;7585324;19;20018;-73
2024/01/11 23:01:28;;;;;;;107.88;29.85;;;-4.70;99.90;;;;;;7584202;19;20018;-73
2024/01/11 23:04:00;;;;;;;134.50;33.63;;;-4.80;99.90;;;;;;7588866;19;20393;-75
2024/01/11 23:06:34;;;;;;;124.97;31.60;;;-4.80;99.90;;;;;;7600582;19;20279;-74
2024/01/11 23:09:10;;;;;;;112.90;32.25;;;-4.80;99.90;;;;;;7583730;19;20022;-74
2024/01/11 23:11:43;;;;;;;116.57;28.58;;;-4.80;99.90;;;;;;7591293;19;20108;-74
2024/01/11 23:14:18;;;;;;;112.82;30.55;;;-4.80;99.90;;;;;;7569661;19;20022;-74
2024/01/11 23:16:51;;;;;;;108.80;30.95;;;-4.70;99.90;;;;;;7595838;19;20093;-73
2024/01/11 23:19:25;;;;;;;115.90;33.22;;;-4.80;99.90;;;;;;7587050;19;20029;-74
2024/01/11 23:21:58;;;;;;;131.48;35.88;;;-4.80;99.90;;;;;;7591621;19;20019;-74
2024/01/11 23:24:31;;;;;;;;;;;-4.80;99.90;;;;;;7583432;19;20196;-73
2024/01/11 23:27:05;;;;;;;97.88;29.23;;;-4.70;99.90;;;;;;7587000;19;19929;-75
2024/01/11 23:29:38;;;;;;;101.03;28.95;;;-4.70;99.90;;;;;;7589634;19;20022;-74
2024/01/11 23:32:10;;;;;;;64.60;17.65;;;-4.60;99.90;;;;;;7583703;19;20015;-75
2024/01/11 23:34:43;;;;;;;111.65;29.20;;;-4.60;99.90;;;;;;7588024;19;20018;-75
2024/01/11 23:37:16;;;;;;;93.00;26.45;;;-4.70;99.90;;;;;;7583686;19;20036;-74
2024/01/11 23:39:49;;;;;;;109.80;27.95;;;-4.70;99.90;;;;;;7580625;19;20018;-75
2024/01/11 23:42:21;;;;;;;99.30;28.17;;;-4.70;99.90;;;;;;7575755;19;20384;-74
2024/01/11 23:44:53;;;;;;;117.07;31.25;;;-4.70;99.90;;;;;;7580503;19;20022;-75
2024/01/11 23:47:26;;;;;;;107.70;29.52;;;-4.70;99.90;;;;;;7593549;19;20015;-74
2024/01/11 23:50:01;;;;;;;108.53;30.33;;;-4.70;99.90;;;;;;7587575;19;20003;-75
2024/01/11 23:52:33;;;;;;;101.18;27.67;;;-4.70;99.90;;;;;;7587398;19;20082;-75
2024/01/11 23:55:06;;;;;;;102.35;29.80;;;-4.70;99.90;;;;;;7572849;19;20055;-74
2024/01/11 23:57:39;;;;;;;96.70;28.80;;;-4.70;99.90;;;;;;7578669;19;20589;-75
